Wagner, South Dakota
Current Conditions -  °F | °C
As of 7:35 PM on Tuesday 27 Jan 2015 (Local Time) from KONL Reporting Station
Clear Clear  
Wind Chill: 40°   Ceiling: Unl
Heat Index: 44°   Visibility: 10mi
Dew Point: 36°   Wind: 7mph
Humidity: 73%   Direction: 130°SE
Pressure: 29.92"   Gusts: NA
Location:  43.08°N, 98.29°W
Report Text: KONL 280135Z AUTO 13006KT 10SM CLR 07/02 A2992 RMK AO2 T00680022
Loading
Personal Weather Stations






























Interactive Weather Map New forecast layout! Learn more

10-Day Weather Forecast

Advertisements
Track Severe Weather on mobile